Ana Sayfa
METAR-TAF:

METAR-TAF

Havaalanları :

Air Force Base Waterkloof

Waterkloof, Güney Afrika

Enlem: 25-50S, Boylam: 028-13E, yükseklik: 1498 m

Güncel hava durumu gözlemi

Rapor saat 07:00 UTC de 59 dakika önce yapıldı.
Rüzgar kuzeydoğudan 6 kt
Sıcaklık
Basınç 1027 hPa

METAR: FAWK 150700Z AUTO 04006KT //// // ////// ///// Q1027

Saat: 09:59 (07:59 UTC)

Tahmin

Rapor saat 06:00 UTC de 1 saat ve 59 dakika önce yapıldı.
Ayın 15'si saat 07 UTC'den ayın 15'si saat 18 UTC'ye kadar geçerli Tahmin
Rüzgar değişken yönden 3 kt
Görüş mesafesi 10 km veya daha fazla
1500 m altında bulut yok ve kümülonimbus yok
Dönüşüyor
ayın 15'si saat 08 UTC'den ayın 15'si saat 10 UTC'ye kadar
Rüzgar batı/kuzeybatıdan 10 kt

TAF: FAWK 150600Z 1507/1518 VRB03KT CAVOK TX29/1513Z TN15/1507Z BECMG 1508/1510 30010KT

4.000'den fazla havaalanı için hava durumu gözlemleri ve tahminleri (METAR ve TAF raporları).

Kullanılabilir istasyonlar harita üzerinde sarı ve kırmızı noktalarla gösterilir.

İstasyonun adını görmek için fareyi noktanın üzerinde gezdirin.

Sonrasında hava gözlem ve tahminlerini görmek için tıklayın.

Haritayı değiştirmek için: yaklaştırmak için siyah artı işaretli yeşil düğmeye ve uzaklaştırmak için de eksi işaretli düğmeye hızla tıklayın; bitişik haritalar için yeşil okları kullanın.


METAR-TAF: